createdAt,value
2022-11-20T00:02:19.788Z,7.17
2022-11-20T00:04:52.661Z,7.16
2022-11-20T00:07:25.626Z,7.13
2022-11-20T00:09:58.513Z,7.13
2022-11-20T00:12:31.309Z,7.14
2022-11-20T00:15:06.293Z,7.18
2022-11-20T00:17:39.417Z,7.22
2022-11-20T00:20:14.039Z,7.31
2022-11-20T00:22:47.059Z,7.37
2022-11-20T00:25:19.929Z,7.47
2022-11-20T00:27:52.837Z,7.55
2022-11-20T00:30:27.003Z,7.67
2022-11-20T00:32:59.947Z,7.76
2022-11-20T00:35:32.711Z,7.88
2022-11-20T00:38:05.691Z,8.00
2022-11-20T00:40:38.473Z,8.11
2022-11-20T00:43:11.314Z,8.21
2022-11-20T00:45:45.568Z,8.31
2022-11-20T00:48:18.577Z,8.39
2022-11-20T00:50:51.485Z,8.48
2022-11-20T00:53:24.324Z,8.55
2022-11-20T00:55:58.324Z,8.61
2022-11-20T00:58:32.438Z,8.69
2022-11-20T01:01:08.605Z,8.78
2022-11-20T01:03:43.725Z,8.82
2022-11-20T01:06:18.865Z,8.89
2022-11-20T01:08:53.007Z,8.94
2022-11-20T01:11:28.102Z,9.00
2022-11-20T01:14:03.933Z,9.06
2022-11-20T01:16:40.586Z,9.09
2022-11-20T01:19:17.898Z,9.08
2022-11-20T01:21:54.400Z,9.10
2022-11-20T01:24:27.281Z,9.10
2022-11-20T01:27:00.087Z,9.12
2022-11-20T01:29:32.890Z,9.11
2022-11-20T01:32:07.169Z,9.11
2022-11-20T01:34:40.088Z,9.13
2022-11-20T01:37:12.869Z,9.12
2022-11-20T01:39:45.809Z,9.13
2022-11-20T01:42:36.123Z,9.15
2022-11-20T01:45:42.156Z,9.19
2022-11-20T01:48:16.898Z,9.20
2022-11-20T01:50:50.854Z,9.23
2022-11-20T01:53:27.924Z,9.29
2022-11-20T01:56:03.857Z,9.31
2022-11-20T01:58:40.280Z,9.37
2022-11-20T02:01:13.742Z,9.40
2022-11-20T02:03:49.276Z,9.45
2022-11-20T02:06:26.345Z,9.49
2022-11-20T02:08:59.146Z,9.49
2022-11-20T02:11:32.860Z,9.54
2022-11-20T02:14:05.094Z,9.56
2022-11-20T02:16:41.414Z,9.62
2022-11-20T02:19:24.257Z,9.64
2022-11-20T02:22:04.200Z,9.68
2022-11-20T02:24:38.732Z,9.71
2022-11-20T02:27:14.318Z,9.74
2022-11-20T02:29:50.409Z,9.78
2022-11-20T02:32:24.832Z,9.79
2022-11-20T02:34:57.872Z,9.83
2022-11-20T02:37:35.273Z,9.84
2022-11-20T02:40:11.554Z,9.88
2022-11-20T02:42:44.543Z,9.90
2022-11-20T02:45:17.344Z,9.92
2022-11-20T02:47:50.617Z,9.96
2022-11-20T02:50:23.458Z,9.99
2022-11-20T02:52:56.298Z,10.01
2022-11-20T02:55:30.707Z,10.04
2022-11-20T02:58:03.655Z,10.05
2022-11-20T03:00:36.790Z,10.06
2022-11-20T03:03:09.735Z,10.08
2022-11-20T03:05:42.828Z,10.10
2022-11-20T03:08:15.672Z,10.12
2022-11-20T03:10:49.827Z,10.13
2022-11-20T03:13:22.841Z,10.15
2022-11-20T03:15:55.695Z,10.15
2022-11-20T03:18:31.078Z,10.17
2022-11-20T03:21:04.432Z,10.18
2022-11-20T03:23:38.116Z,10.18
2022-11-20T03:26:15.064Z,10.20
2022-11-20T03:28:49.634Z,10.19
2022-11-20T03:31:24.810Z,10.20
2022-11-20T03:33:58.856Z,10.20
2022-11-20T03:36:32.268Z,10.19
2022-11-20T03:39:05.133Z,10.20
2022-11-20T03:41:41.099Z,10.24
2022-11-20T03:44:14.067Z,10.24
2022-11-20T03:46:46.861Z,10.21
2022-11-20T03:49:19.969Z,10.24
2022-11-20T03:51:52.920Z,10.24
2022-11-20T03:54:25.871Z,10.25
2022-11-20T03:57:00.220Z,10.26
2022-11-20T03:59:33.091Z,10.26
2022-11-20T04:02:05.973Z,10.27
2022-11-20T04:04:38.845Z,10.27
2022-11-20T04:07:11.921Z,10.28
2022-11-20T04:09:44.805Z,10.28
2022-11-20T04:12:19.085Z,10.30
2022-11-20T04:14:51.958Z,10.30
2022-11-20T04:17:24.791Z,10.30
2022-11-20T04:19:57.972Z,10.30
2022-11-20T04:22:30.943Z,10.28
2022-11-20T04:25:03.970Z,10.27
2022-11-20T04:27:38.206Z,10.25
2022-11-20T04:30:12.052Z,10.21
2022-11-20T04:32:45.032Z,10.19
2022-11-20T04:35:18.040Z,10.14
2022-11-20T04:37:53.589Z,10.13
2022-11-20T04:40:26.559Z,10.09
2022-11-20T04:43:01.041Z,10.09
2022-11-20T04:45:33.881Z,10.07
2022-11-20T04:48:07.234Z,10.05
2022-11-20T04:50:42.404Z,10.07
2022-11-20T04:53:15.664Z,10.05
2022-11-20T04:55:49.130Z,10.05
2022-11-20T04:58:24.579Z,10.04
2022-11-20T05:01:04.389Z,9.97
2022-11-20T05:03:41.975Z,9.89
2022-11-20T05:06:17.353Z,9.82
2022-11-20T05:08:50.541Z,9.70
2022-11-20T05:11:23.897Z,9.60
2022-11-20T05:14:01.209Z,9.51
2022-11-20T05:16:37.357Z,9.40
2022-11-20T05:19:10.392Z,9.29
2022-11-20T05:21:43.252Z,9.19
2022-11-20T05:24:16.045Z,9.11
2022-11-20T05:26:48.848Z,9.01
2022-11-20T05:29:23.312Z,8.93
2022-11-20T05:31:56.409Z,8.80
2022-11-20T05:34:29.249Z,8.71
2022-11-20T05:37:02.125Z,8.60
2022-11-20T05:39:35.004Z,8.51
2022-11-20T05:42:25.661Z,8.44
2022-11-20T05:45:00.310Z,8.38
2022-11-20T05:47:35.694Z,8.36
2022-11-20T05:50:08.950Z,8.34
2022-11-20T05:52:41.819Z,8.35
2022-11-20T05:55:14.636Z,8.38
2022-11-20T05:57:47.547Z,8.39
2022-11-20T06:00:22.175Z,8.45
2022-11-20T06:02:55.125Z,8.49
2022-11-20T06:05:27.936Z,8.53
2022-11-20T06:08:02.693Z,8.62
2022-11-20T06:10:35.540Z,8.67
2022-11-20T06:13:08.710Z,8.75
2022-11-20T06:15:43.573Z,8.84
2022-11-20T06:18:16.442Z,8.92
2022-11-20T06:20:49.270Z,8.99
2022-11-20T06:23:22.112Z,9.08
2022-11-20T06:25:54.925Z,9.16
2022-11-20T06:28:27.732Z,9.21
2022-11-20T06:31:02.332Z,9.29
2022-11-20T06:33:35.889Z,9.36
2022-11-20T06:36:11.037Z,9.42
2022-11-20T06:38:44.909Z,9.49
2022-11-20T06:41:20.828Z,9.55
2022-11-20T06:43:54.153Z,9.59
2022-11-20T06:46:28.409Z,9.66
2022-11-20T06:49:01.396Z,9.70
2022-11-20T06:51:34.480Z,9.72
2022-11-20T06:54:07.479Z,9.75
2022-11-20T06:56:40.312Z,9.77
2022-11-20T06:59:13.291Z,9.80
2022-11-20T07:01:47.424Z,9.84
2022-11-20T07:04:20.383Z,9.86
2022-11-20T07:06:53.580Z,9.91
2022-11-20T07:09:26.628Z,9.95
2022-11-20T07:11:59.650Z,9.96
2022-11-20T07:14:32.512Z,9.99
2022-11-20T07:17:06.779Z,10.01
2022-11-20T07:19:39.695Z,10.04
2022-11-20T07:22:12.505Z,10.05
2022-11-20T07:24:46.272Z,10.06
2022-11-20T07:27:19.096Z,10.06
2022-11-20T07:29:51.887Z,10.09
2022-11-20T07:32:26.589Z,10.12
2022-11-20T07:34:59.917Z,10.15
2022-11-20T07:37:33.062Z,10.16
2022-11-20T07:40:07.085Z,10.20
2022-11-20T07:42:39.928Z,10.23
2022-11-20T07:45:12.792Z,10.26
2022-11-20T07:47:47.039Z,10.30
2022-11-20T07:50:20.503Z,10.37
2022-11-20T07:52:53.507Z,10.42
2022-11-20T07:55:26.623Z,10.50
2022-11-20T07:57:59.843Z,10.56
2022-11-20T08:00:33.033Z,10.65
2022-11-20T08:03:07.970Z,10.75
2022-11-20T08:05:40.894Z,10.82
2022-11-20T08:08:14.034Z,10.92
2022-11-20T08:10:46.808Z,11.00
2022-11-20T08:13:37.080Z,11.10
2022-11-20T08:16:09.890Z,11.20
2022-11-20T08:18:44.125Z,11.31
2022-11-20T08:21:17.025Z,11.38
2022-11-20T08:23:49.900Z,11.46
2022-11-20T08:26:24.402Z,11.53
2022-11-20T08:28:57.762Z,11.60
2022-11-20T08:31:30.837Z,11.65
2022-11-20T08:34:08.906Z,11.70
2022-11-20T08:36:42.393Z,11.75
2022-11-20T08:39:15.568Z,11.80
2022-11-20T08:41:48.384Z,11.82
2022-11-20T08:44:21.273Z,11.82
2022-11-20T08:46:54.097Z,11.79
2022-11-20T08:49:28.312Z,11.74
2022-11-20T08:52:01.252Z,11.67
2022-11-20T08:54:34.167Z,11.60
2022-11-20T08:57:07.054Z,11.52
2022-11-20T09:02:33.418Z,11.39
2022-11-20T09:05:08.645Z,11.37
2022-11-20T09:07:42.315Z,11.35
2022-11-20T09:10:30.430Z,11.40
2022-11-20T09:13:03.578Z,11.45
2022-11-20T09:15:36.543Z,11.52
2022-11-20T09:18:09.379Z,11.57
2022-11-20T09:20:44.504Z,11.64
2022-11-20T09:23:17.860Z,11.71
2022-11-20T09:25:51.086Z,11.80
2022-11-20T09:28:23.978Z,11.93
2022-11-20T09:30:56.896Z,12.02
2022-11-20T09:33:29.951Z,12.13
2022-11-20T09:36:04.704Z,12.26
2022-11-20T09:38:37.749Z,12.35
2022-11-20T09:41:32.298Z,12.47
2022-11-20T09:44:13.894Z,12.58
2022-11-20T09:46:55.984Z,12.67
2022-11-20T09:49:38.528Z,12.75
2022-11-20T09:52:24.217Z,12.79
2022-11-20T09:54:57.443Z,12.83
2022-11-20T09:57:36.273Z,12.88
2022-11-20T10:00:13.256Z,12.91
2022-11-20T10:02:52.049Z,12.93
2022-11-20T10:05:29.400Z,12.95
2022-11-20T10:08:17.113Z,12.99
2022-11-20T10:10:56.127Z,13.01
2022-11-20T10:13:42.289Z,13.07
2022-11-20T10:16:30.657Z,13.18
2022-11-20T10:19:17.177Z,13.30
2022-11-20T10:22:01.009Z,13.40
2022-11-20T10:24:54.993Z,13.53
2022-11-20T10:27:45.531Z,13.61
2022-11-20T10:30:21.148Z,13.66
2022-11-20T10:32:57.595Z,13.69
2022-11-20T10:35:36.127Z,13.72
2022-11-20T10:38:20.150Z,13.75
2022-11-20T10:41:19.994Z,13.80
2022-11-20T10:43:56.133Z,13.86
2022-11-20T10:46:38.514Z,13.95
2022-11-20T10:49:17.641Z,14.06
2022-11-20T10:52:02.017Z,14.16
2022-11-20T10:54:41.316Z,14.25
2022-11-20T10:57:26.838Z,14.33
2022-11-20T11:00:06.697Z,14.41
2022-11-20T11:02:45.272Z,14.47
2022-11-20T11:05:29.960Z,14.53
2022-11-20T11:08:03.213Z,14.57
2022-11-20T11:10:44.325Z,14.60
2022-11-20T11:13:26.963Z,14.65
2022-11-20T11:16:00.262Z,14.67
2022-11-20T11:18:34.928Z,14.70
2022-11-20T11:21:07.761Z,14.75
2022-11-20T11:23:42.648Z,14.80
2022-11-20T11:26:22.996Z,14.85
2022-11-20T11:28:59.162Z,14.86
2022-11-20T11:31:33.984Z,14.85
2022-11-20T11:34:07.738Z,14.86
2022-11-20T11:36:40.657Z,14.84
2022-11-20T11:39:17.444Z,14.85
2022-11-20T11:41:51.278Z,14.83
2022-11-20T11:44:47.943Z,14.86
2022-11-20T11:47:25.390Z,14.88
2022-11-20T11:50:16.530Z,14.90
2022-11-20T11:52:58.596Z,14.91
2022-11-20T11:55:37.005Z,14.90
2022-11-20T11:58:19.829Z,14.89
2022-11-20T12:00:59.327Z,14.85
2022-11-20T12:03:37.800Z,14.81
2022-11-20T12:06:14.933Z,14.75
2022-11-20T12:08:55.303Z,14.68
2022-11-20T12:11:37.034Z,14.64
2022-11-20T12:14:16.697Z,14.62
2022-11-20T12:16:51.178Z,14.62
2022-11-20T12:19:24.197Z,14.66
2022-11-20T12:22:07.310Z,14.73
2022-11-20T12:24:53.958Z,14.82
2022-11-20T12:27:48.270Z,14.95
2022-11-20T12:30:22.393Z,15.05
2022-11-20T12:33:11.152Z,15.19
2022-11-20T12:35:58.133Z,15.27
2022-11-20T12:39:09.917Z,15.35
2022-11-20T12:42:21.494Z,15.38
2022-11-20T12:45:13.421Z,15.40
2022-11-20T12:47:53.973Z,15.40
2022-11-20T12:51:00.144Z,15.43
2022-11-20T12:53:39.742Z,15.43
2022-11-20T12:56:23.605Z,15.43
2022-11-20T12:59:08.728Z,15.41
2022-11-20T13:01:51.360Z,15.41
2022-11-20T13:04:41.427Z,15.40
2022-11-20T13:07:18.525Z,15.38
2022-11-20T13:09:53.397Z,15.33
2022-11-20T13:12:33.087Z,15.25
2022-11-20T13:15:17.333Z,15.16
2022-11-20T13:17:55.126Z,15.03
2022-11-20T13:20:28.994Z,14.88
2022-11-20T13:23:03.311Z,14.72
2022-11-20T13:25:38.486Z,14.52
2022-11-20T13:28:30.604Z,14.36
2022-11-20T13:31:03.487Z,14.17
2022-11-20T13:33:38.804Z,14.03
2022-11-20T13:36:24.877Z,13.89
2022-11-20T13:38:59.521Z,13.73
2022-11-20T13:41:36.370Z,13.58
2022-11-20T13:44:16.402Z,13.44
2022-11-20T13:46:49.734Z,13.29
2022-11-20T13:49:29.157Z,13.17
2022-11-20T13:52:22.749Z,13.07
2022-11-20T13:55:10.072Z,13.00
2022-11-20T13:58:12.127Z,12.97
2022-11-20T14:00:54.467Z,12.96
2022-11-20T14:03:59.041Z,12.94
2022-11-20T14:06:29.446Z,12.97
2022-11-20T14:09:02.435Z,12.96
2022-11-20T14:11:36.852Z,13.00
2022-11-20T14:14:20.109Z,13.02
2022-11-20T14:16:55.739Z,13.05
2022-11-20T14:19:32.457Z,13.07
2022-11-20T14:22:20.464Z,13.09
2022-11-20T14:25:06.732Z,13.07
2022-11-20T14:27:42.867Z,13.00
2022-11-20T14:30:18.712Z,12.93
2022-11-20T14:32:53.285Z,12.82
2022-11-20T14:35:31.331Z,12.73
2022-11-20T14:38:05.482Z,12.60
2022-11-20T14:40:38.608Z,12.46
2022-11-20T14:43:23.666Z,12.37
2022-11-20T14:46:02.222Z,12.28
2022-11-20T14:48:43.250Z,12.19
2022-11-20T14:51:29.134Z,12.11
2022-11-20T14:54:13.205Z,12.04
2022-11-20T14:56:56.535Z,11.96
2022-11-20T14:59:32.447Z,11.87
2022-11-20T15:02:07.799Z,11.79
2022-11-20T15:04:47.526Z,11.72
2022-11-20T15:07:28.107Z,11.65
2022-11-20T15:10:07.445Z,11.58
2022-11-20T15:12:47.743Z,11.51
2022-11-20T15:15:27.656Z,11.44
2022-11-20T15:18:00.813Z,11.38
2022-11-20T15:20:35.754Z,11.30
2022-11-20T15:23:13.275Z,11.23
2022-11-20T15:25:47.203Z,11.14
2022-11-20T15:28:22.724Z,11.08
2022-11-20T15:30:57.503Z,11.03
2022-11-20T15:33:30.333Z,10.95
2022-11-20T15:36:03.272Z,10.91
2022-11-20T15:38:36.271Z,10.85
2022-11-20T15:41:09.834Z,10.79
2022-11-20T15:43:42.847Z,10.76
2022-11-20T15:46:19.512Z,10.71
2022-11-20T15:48:56.415Z,10.66
2022-11-20T15:51:31.640Z,10.62
2022-11-20T15:54:11.594Z,10.58
2022-11-20T15:56:44.380Z,10.54
2022-11-20T15:59:17.299Z,10.51
2022-11-20T16:01:51.658Z,10.49
2022-11-20T16:04:25.004Z,10.45
2022-11-20T16:06:58.130Z,10.41
2022-11-20T16:09:33.578Z,10.37
2022-11-20T16:12:07.069Z,10.34
2022-11-20T16:14:57.322Z,10.29
2022-11-20T16:17:44.568Z,10.25
2022-11-20T16:20:18.141Z,10.20
2022-11-20T16:22:50.949Z,10.16
2022-11-20T16:25:23.749Z,10.12
2022-11-20T16:27:56.599Z,10.08
2022-11-20T16:30:31.926Z,10.02
2022-11-20T16:33:06.598Z,9.99
2022-11-20T16:35:39.741Z,9.95
2022-11-20T16:38:12.667Z,9.92
2022-11-20T16:40:45.632Z,9.88
2022-11-20T16:43:18.432Z,9.85
2022-11-20T16:45:51.272Z,9.80
2022-11-20T16:48:25.635Z,9.77
2022-11-20T16:50:58.418Z,9.76
2022-11-20T16:53:34.895Z,9.74
2022-11-20T16:56:12.084Z,9.71
2022-11-20T16:58:45.436Z,9.67
2022-11-20T17:01:21.398Z,9.68
2022-11-20T17:04:00.489Z,9.68
2022-11-20T17:06:35.399Z,9.68
2022-11-20T17:09:09.668Z,9.66
2022-11-20T17:11:42.782Z,9.67
2022-11-20T17:14:15.622Z,9.71
2022-11-20T17:16:48.937Z,9.73
2022-11-20T17:19:23.656Z,9.76
2022-11-20T17:21:56.486Z,9.76
2022-11-20T17:24:32.030Z,9.75
2022-11-20T17:27:05.316Z,9.76
2022-11-20T17:29:42.039Z,9.77
2022-11-20T17:32:15.317Z,9.78
2022-11-20T17:34:49.740Z,9.79
2022-11-20T17:37:22.590Z,9.79
2022-11-20T17:39:55.538Z,9.74
2022-11-20T17:42:29.653Z,9.74
2022-11-20T17:45:02.567Z,9.70
2022-11-20T17:47:36.540Z,9.67
2022-11-20T17:50:11.851Z,9.64
2022-11-20T17:52:44.715Z,9.56
2022-11-20T17:55:17.806Z,9.53
2022-11-20T17:57:52.575Z,9.49
2022-11-20T18:00:26.176Z,9.43
2022-11-20T18:02:59.268Z,9.39
2022-11-20T18:05:33.542Z,9.40
2022-11-20T18:08:06.491Z,9.40
2022-11-20T18:10:39.444Z,9.39
2022-11-20T18:13:12.270Z,9.41
2022-11-20T18:15:45.108Z,9.42
2022-11-20T18:18:17.923Z,9.45
2022-11-20T18:20:55.759Z,9.50
2022-11-20T18:23:28.594Z,9.52
2022-11-20T18:26:01.601Z,9.58
2022-11-20T18:28:38.467Z,9.65
2022-11-20T18:31:11.731Z,9.71
2022-11-20T18:33:44.575Z,9.75
2022-11-20T18:36:21.145Z,9.83
2022-11-20T18:38:56.963Z,9.89
2022-11-20T18:41:49.028Z,9.97
2022-11-20T18:44:40.601Z,10.03
2022-11-20T18:47:16.005Z,10.13
2022-11-20T18:49:52.585Z,10.18
2022-11-20T18:52:29.500Z,10.25
2022-11-20T18:55:03.177Z,10.30
2022-11-20T18:57:36.247Z,10.36
2022-11-20T19:00:10.449Z,10.40
2022-11-20T19:02:43.711Z,10.45
2022-11-20T19:05:16.712Z,10.51
2022-11-20T19:07:50.954Z,10.58
2022-11-20T19:10:24.407Z,10.61
2022-11-20T19:12:58.617Z,10.67
2022-11-20T19:15:31.598Z,10.71
2022-11-20T19:18:04.544Z,10.75
2022-11-20T19:20:37.376Z,10.79
2022-11-20T19:23:11.780Z,10.83
2022-11-20T19:25:44.620Z,10.83
2022-11-20T19:28:17.555Z,10.82
2022-11-20T19:30:50.382Z,10.81
2022-11-20T19:33:23.267Z,10.74
2022-11-20T19:35:56.116Z,10.70
2022-11-20T19:38:30.389Z,10.65
2022-11-20T19:41:03.274Z,10.59
2022-11-20T19:43:36.769Z,10.53
2022-11-20T19:46:09.877Z,10.48
2022-11-20T19:48:42.751Z,10.41
2022-11-20T19:51:17.944Z,10.37
2022-11-20T19:53:53.182Z,10.33
2022-11-20T19:56:27.069Z,10.26
2022-11-20T19:59:00.729Z,10.21
2022-11-20T20:01:33.950Z,10.15
2022-11-20T20:04:07.167Z,10.09
2022-11-20T20:06:41.707Z,10.04
2022-11-20T20:09:18.917Z,10.01
2022-11-20T20:11:51.831Z,9.94
2022-11-20T20:14:26.041Z,9.89
2022-11-20T20:16:59.058Z,9.86
2022-11-20T20:19:34.976Z,9.80
2022-11-20T20:22:08.295Z,9.76
2022-11-20T20:24:43.113Z,9.74
2022-11-20T20:27:18.886Z,9.71
2022-11-20T20:29:54.208Z,9.67
2022-11-20T20:32:27.478Z,9.60
2022-11-20T20:35:00.736Z,9.54
2022-11-20T20:37:33.686Z,9.52
2022-11-20T20:40:14.945Z,9.48
2022-11-20T20:42:48.818Z,9.41
2022-11-20T20:45:21.910Z,9.39
2022-11-20T20:47:56.009Z,9.36
2022-11-20T20:50:28.987Z,9.36
2022-11-20T20:53:02.297Z,9.33
2022-11-20T20:55:40.242Z,9.33
2022-11-20T20:58:13.471Z,9.32
2022-11-20T21:00:46.565Z,9.32
2022-11-20T21:03:20.857Z,9.31
2022-11-20T21:05:57.916Z,9.34
2022-11-20T21:08:31.721Z,9.31
2022-11-20T21:11:09.712Z,9.30
2022-11-20T21:13:45.880Z,9.30
2022-11-20T21:16:21.163Z,9.29
2022-11-20T21:18:54.291Z,9.26
2022-11-20T21:21:45.093Z,9.28
2022-11-20T21:24:18.680Z,9.26
2022-11-20T21:26:53.338Z,9.26
2022-11-20T21:29:28.215Z,9.23
2022-11-20T21:32:01.469Z,9.22
2022-11-20T21:34:35.065Z,9.23
2022-11-20T21:37:08.365Z,9.24
2022-11-20T21:39:50.771Z,9.25
2022-11-20T21:42:25.360Z,9.26
2022-11-20T21:44:58.437Z,9.27
2022-11-20T21:47:32.116Z,9.28
2022-11-20T21:50:05.675Z,9.28
2022-11-20T21:52:38.627Z,9.28
2022-11-20T21:55:12.165Z,9.30
2022-11-20T21:57:46.496Z,9.29
2022-11-20T22:00:19.925Z,9.29
2022-11-20T22:02:53.259Z,9.29
2022-11-20T22:05:26.397Z,9.29
2022-11-20T22:07:59.623Z,9.29
2022-11-20T22:10:32.785Z,9.30
2022-11-20T22:13:24.437Z,9.31
2022-11-20T22:16:02.863Z,9.32
2022-11-20T22:18:36.201Z,9.35
2022-11-20T22:21:10.221Z,9.34
2022-11-20T22:23:43.252Z,9.38
2022-11-20T22:26:18.649Z,9.37
2022-11-20T22:28:54.695Z,9.40
2022-11-20T22:31:29.359Z,9.41
2022-11-20T22:34:03.576Z,9.42
2022-11-20T22:36:38.383Z,9.44
2022-11-20T22:39:11.385Z,9.44
2022-11-20T22:41:44.228Z,9.45
2022-11-20T22:44:18.702Z,9.47
2022-11-20T22:46:51.987Z,9.45
2022-11-20T22:49:24.943Z,9.42
2022-11-20T22:51:57.996Z,9.40
2022-11-20T22:54:31.025Z,9.35
2022-11-20T22:57:03.873Z,9.31
2022-11-20T22:59:38.339Z,9.23
2022-11-20T23:02:11.483Z,9.16
2022-11-20T23:04:44.417Z,9.11
2022-11-20T23:07:17.223Z,9.02
2022-11-20T23:09:50.159Z,8.94
2022-11-20T23:12:23.115Z,8.87
2022-11-20T23:14:57.561Z,8.79
2022-11-20T23:17:31.118Z,8.72
2022-11-20T23:20:04.417Z,8.64
2022-11-20T23:22:37.233Z,8.57
2022-11-20T23:25:10.964Z,8.53
2022-11-20T23:27:44.052Z,8.49
2022-11-20T23:30:18.935Z,8.44
2022-11-20T23:32:51.803Z,8.40
2022-11-20T23:35:24.690Z,8.35
2022-11-20T23:37:57.694Z,8.33
2022-11-20T23:40:30.560Z,8.31
2022-11-20T23:43:18.481Z,8.29
2022-11-20T23:45:54.577Z,8.33
2022-11-20T23:48:29.384Z,8.32
2022-11-20T23:51:02.531Z,8.34
2022-11-20T23:53:36.084Z,8.35
2022-11-20T23:56:09.140Z,8.38
2022-11-20T23:58:42.111Z,8.42
